createdAt,value
2023-05-01T00:00:44.636Z,101960.84
2023-05-01T00:03:14.657Z,101963.63
2023-05-01T00:05:43.337Z,101952.94
2023-05-01T00:08:11.873Z,101944.22
2023-05-01T00:10:40.634Z,101946.66
2023-05-01T00:13:10.805Z,101942.38
2023-05-01T00:15:43.797Z,101943.22
2023-05-01T00:18:12.261Z,101933.78
2023-05-01T00:20:40.629Z,101935.69
2023-05-01T00:23:08.989Z,101929.69
2023-05-01T00:25:37.478Z,101934.00
2023-05-01T00:28:07.788Z,101918.63
2023-05-01T00:30:36.806Z,101935.00
2023-05-01T00:33:06.660Z,101921.88
2023-05-01T00:35:35.777Z,101919.09
2023-05-01T00:38:04.262Z,101917.69
2023-05-01T00:40:32.585Z,101915.38
2023-05-01T00:43:00.989Z,101913.66
2023-05-01T00:45:29.497Z,101912.19
2023-05-01T00:47:57.892Z,101908.84
2023-05-01T00:50:28.048Z,101905.59
2023-05-01T00:52:56.336Z,101896.50
2023-05-01T00:55:25.148Z,101900.09
2023-05-01T00:57:54.206Z,101893.13
2023-05-01T01:00:24.832Z,101896.78
2023-05-01T01:02:57.628Z,101891.66
2023-05-01T01:05:32.711Z,101886.56
2023-05-01T01:08:11.318Z,101888.19
2023-05-01T01:10:54.592Z,101882.94
2023-05-01T01:13:31.310Z,101875.97
2023-05-01T01:16:10.274Z,101872.44
2023-05-01T01:18:45.068Z,101860.16
2023-05-01T01:21:27.649Z,101868.94
2023-05-01T01:24:37.132Z,101862.00
2023-05-01T01:27:40.927Z,101859.53
2023-05-01T01:30:35.678Z,101855.59
2023-05-01T01:33:31.485Z,101846.41
2023-05-01T01:36:09.177Z,101843.38
2023-05-01T01:38:44.819Z,101844.31
2023-05-01T01:41:27.715Z,101829.03
2023-05-01T01:44:03.756Z,101833.66
2023-05-01T01:46:40.704Z,101829.28
2023-05-01T01:49:17.668Z,101826.19
2023-05-01T01:51:49.943Z,101822.81
2023-05-01T01:54:27.184Z,101814.91
2023-05-01T01:56:58.434Z,101806.31
2023-05-01T01:59:27.382Z,101810.75
2023-05-01T02:01:57.799Z,101804.06
2023-05-01T02:04:28.838Z,101805.13
2023-05-01T02:07:01.516Z,101801.28
2023-05-01T02:09:31.589Z,101795.53
2023-05-01T02:12:01.952Z,101804.13
2023-05-01T02:14:31.775Z,101794.47
2023-05-01T02:17:01.011Z,101788.13
2023-05-01T02:19:29.993Z,101790.94
2023-05-01T02:22:00.854Z,101785.59
2023-05-01T02:24:32.090Z,101780.34
2023-05-01T02:27:09.544Z,101778.59
2023-05-01T02:29:37.845Z,101778.03
2023-05-01T02:32:06.525Z,101776.06
2023-05-01T02:34:36.608Z,101767.41
2023-05-01T02:37:09.254Z,101756.63
2023-05-01T02:39:38.010Z,101760.00
2023-05-01T02:42:08.183Z,101748.59
2023-05-01T02:44:43.668Z,101753.28
2023-05-01T02:47:16.979Z,101753.34
2023-05-01T02:49:48.114Z,101740.88
2023-05-01T02:52:20.015Z,101745.38
2023-05-01T02:54:49.103Z,101730.78
2023-05-01T02:57:20.432Z,101735.13
2023-05-01T02:59:48.935Z,101731.44
2023-05-01T03:02:17.238Z,101720.13
2023-05-01T03:04:45.733Z,101724.31
2023-05-01T03:07:14.593Z,101716.09
2023-05-01T03:09:44.468Z,101708.19
2023-05-01T03:12:12.659Z,101717.31
2023-05-01T03:14:41.061Z,101712.47
2023-05-01T03:17:09.370Z,101705.63
2023-05-01T03:19:37.684Z,101705.38
2023-05-01T03:22:06.054Z,101702.91
2023-05-01T03:24:34.521Z,101693.16
2023-05-01T03:27:04.771Z,101697.53
2023-05-01T03:29:34.079Z,101687.78
2023-05-01T03:32:02.696Z,101697.72
2023-05-01T03:34:31.234Z,101704.81
2023-05-01T03:37:00.209Z,101693.28
2023-05-01T03:39:28.546Z,101686.19
2023-05-01T03:41:57.538Z,101690.13
2023-05-01T03:44:27.849Z,101683.22
2023-05-01T03:46:56.103Z,101675.31
2023-05-01T03:49:25.388Z,101692.25
2023-05-01T03:51:54.072Z,101695.25
2023-05-01T03:54:22.761Z,101688.22
2023-05-01T03:56:51.243Z,101684.59
2023-05-01T03:59:19.636Z,101687.59
2023-05-01T04:01:51.529Z,101689.41
2023-05-01T04:04:23.038Z,101685.22
2023-05-01T04:06:54.353Z,101686.66
2023-05-01T04:09:22.762Z,101671.97
2023-05-01T04:11:51.070Z,101687.16
2023-05-01T04:14:20.460Z,101675.56
2023-05-01T04:16:51.025Z,101685.34
2023-05-01T04:19:19.358Z,101679.31
2023-05-01T04:21:48.179Z,101677.25
2023-05-01T04:24:16.737Z,101672.91
2023-05-01T04:26:45.120Z,101670.09
2023-05-01T04:29:13.455Z,101672.69
2023-05-01T04:31:43.395Z,101677.25
2023-05-01T04:34:13.222Z,101669.31
2023-05-01T04:36:41.617Z,101659.72
2023-05-01T04:39:10.709Z,101674.72
2023-05-01T04:41:39.220Z,101678.13
2023-05-01T04:44:07.753Z,101676.41
2023-05-01T04:46:36.255Z,101674.09
2023-05-01T04:49:04.855Z,101676.47
2023-05-01T04:51:34.764Z,101672.78
2023-05-01T04:54:04.730Z,101664.56
2023-05-01T04:56:33.183Z,101667.56
2023-05-01T04:59:01.939Z,101675.56
2023-05-01T05:01:30.662Z,101676.72
2023-05-01T05:03:59.683Z,101678.44
2023-05-01T05:06:28.474Z,101672.53
2023-05-01T05:08:58.938Z,101668.41
2023-05-01T05:11:27.804Z,101674.25
2023-05-01T05:13:56.226Z,101668.50
2023-05-01T05:16:28.004Z,101669.53
2023-05-01T05:18:58.052Z,101669.13
2023-05-01T05:21:28.793Z,101666.75
2023-05-01T05:23:58.917Z,101669.34
2023-05-01T05:26:27.422Z,101670.44
2023-05-01T05:28:56.697Z,101672.66
2023-05-01T05:31:25.291Z,101669.03
2023-05-01T05:33:53.775Z,101671.56
2023-05-01T05:36:27.747Z,101664.03
2023-05-01T05:38:56.270Z,101658.66
2023-05-01T05:41:27.193Z,101666.72
2023-05-01T05:43:55.789Z,101655.63
2023-05-01T05:46:24.726Z,101665.19
2023-05-01T05:48:53.143Z,101665.63
2023-05-01T05:51:21.626Z,101662.94
2023-05-01T05:53:50.488Z,101653.78
2023-05-01T05:56:22.026Z,101650.00
2023-05-01T05:58:51.809Z,101647.50
2023-05-01T06:01:20.167Z,101641.97
2023-05-01T06:03:48.661Z,101638.25
2023-05-01T06:06:17.461Z,101644.19
2023-05-01T06:08:46.422Z,101642.38
2023-05-01T06:11:14.996Z,101641.41
2023-05-01T06:13:43.312Z,101638.88
2023-05-01T06:16:13.395Z,101652.88
2023-05-01T06:18:43.382Z,101649.38
2023-05-01T06:21:14.032Z,101641.09
2023-05-01T06:23:42.361Z,101632.78
2023-05-01T06:26:10.645Z,101640.75
2023-05-01T06:28:38.946Z,101639.22
2023-05-01T06:31:07.546Z,101642.97
2023-05-01T06:33:37.998Z,101639.19
2023-05-01T06:36:09.596Z,101639.88
2023-05-01T06:38:42.137Z,101640.72
2023-05-01T06:41:11.363Z,101636.56
2023-05-01T06:43:39.716Z,101629.47
2023-05-01T06:46:08.323Z,101627.00
2023-05-01T06:48:38.319Z,101634.41
2023-05-01T06:51:07.096Z,101636.75
2023-05-01T06:53:37.123Z,101639.63
2023-05-01T06:56:05.949Z,101643.41
2023-05-01T06:58:34.494Z,101631.34
2023-05-01T07:01:03.004Z,101639.47
2023-05-01T07:03:31.651Z,101637.97
2023-05-01T07:06:02.091Z,101645.44
2023-05-01T07:08:31.053Z,101647.63
2023-05-01T07:10:59.771Z,101643.63
2023-05-01T07:13:28.001Z,101641.38
2023-05-01T07:15:56.292Z,101650.25
2023-05-01T07:18:26.484Z,101643.78
2023-05-01T07:20:54.500Z,101638.91
2023-05-01T07:23:25.405Z,101638.84
2023-05-01T07:25:54.155Z,101633.59
2023-05-01T07:28:22.825Z,101629.97
2023-05-01T07:30:50.899Z,101628.47
2023-05-01T07:33:19.107Z,101633.34
2023-05-01T07:35:48.195Z,101628.28
2023-05-01T07:38:17.932Z,101621.47
2023-05-01T07:40:47.276Z,101629.97
2023-05-01T07:43:15.961Z,101628.19
2023-05-01T07:45:55.039Z,101619.81
2023-05-01T07:48:23.257Z,101617.94
2023-05-01T07:50:51.324Z,101625.88
2023-05-01T07:53:19.309Z,101611.31
2023-05-01T07:55:48.666Z,101612.47
2023-05-01T07:58:17.880Z,101611.38
2023-05-01T08:00:46.289Z,101613.34
2023-05-01T08:03:14.780Z,101609.22
2023-05-01T08:05:43.457Z,101613.25
2023-05-01T08:08:13.328Z,101612.16
2023-05-01T08:10:41.814Z,101607.53
2023-05-01T08:13:11.503Z,101617.00
2023-05-01T08:15:42.647Z,101614.16
2023-05-01T08:18:12.968Z,101613.28
2023-05-01T08:20:41.876Z,101619.84
2023-05-01T08:23:10.304Z,101613.88
2023-05-01T08:25:38.675Z,101618.75
2023-05-01T08:28:07.032Z,101620.59
2023-05-01T08:30:37.065Z,101613.97
2023-05-01T08:33:05.772Z,101614.63
2023-05-01T08:35:34.061Z,101618.84
2023-05-01T08:38:03.097Z,101608.22
2023-05-01T08:40:38.432Z,101607.50
2023-05-01T08:43:06.655Z,101611.34
2023-05-01T08:45:39.299Z,101606.97
2023-05-01T08:48:08.327Z,101613.88
2023-05-01T08:50:37.898Z,101608.44
2023-05-01T08:53:07.724Z,101616.63
2023-05-01T08:55:37.651Z,101613.22
2023-05-01T08:58:08.476Z,101612.25
2023-05-01T09:00:39.378Z,101620.69
2023-05-01T09:03:10.729Z,101621.69
2023-05-01T09:05:39.435Z,101626.56
2023-05-01T09:08:08.099Z,101624.91
2023-05-01T09:10:46.426Z,101625.13
2023-05-01T09:13:14.829Z,101623.38
2023-05-01T09:15:44.967Z,101627.31
2023-05-01T09:18:13.912Z,101628.81
2023-05-01T09:20:43.082Z,101628.53
2023-05-01T09:23:12.841Z,101625.31
2023-05-01T09:25:41.514Z,101628.13
2023-05-01T09:28:10.154Z,101621.31
2023-05-01T09:30:40.459Z,101626.59
2023-05-01T09:33:12.382Z,101620.94
2023-05-01T09:35:52.745Z,101631.03
2023-05-01T09:38:23.562Z,101624.56
2023-05-01T09:40:53.871Z,101629.28
2023-05-01T09:43:30.386Z,101620.34
2023-05-01T09:46:05.381Z,101615.78
2023-05-01T09:48:36.203Z,101623.53
2023-05-01T09:51:23.288Z,101628.38
2023-05-01T09:53:55.793Z,101627.41
2023-05-01T09:56:24.798Z,101630.22
2023-05-01T09:58:54.550Z,101621.75
2023-05-01T10:01:40.382Z,101623.38
2023-05-01T10:04:11.005Z,101624.38
2023-05-01T10:06:40.287Z,101627.38
2023-05-01T10:09:16.799Z,101628.53
2023-05-01T10:11:54.589Z,101626.03
2023-05-01T10:14:26.926Z,101626.56
2023-05-01T10:16:57.803Z,101620.50
2023-05-01T10:19:27.691Z,101625.56
2023-05-01T10:21:56.231Z,101631.66
2023-05-01T10:24:25.132Z,101623.31
2023-05-01T10:26:55.098Z,101622.63
2023-05-01T10:29:25.585Z,101627.66
2023-05-01T10:31:56.841Z,101630.53
2023-05-01T10:34:28.832Z,101633.53
2023-05-01T10:37:02.283Z,101639.81
2023-05-01T10:39:35.431Z,101641.09
2023-05-01T10:42:11.522Z,101637.19
2023-05-01T10:44:42.014Z,101639.94
2023-05-01T10:47:49.086Z,101647.97
2023-05-01T10:50:19.537Z,101650.19
2023-05-01T10:53:20.242Z,101661.47
2023-05-01T10:55:51.171Z,101657.41
2023-05-01T10:58:58.371Z,101655.13
2023-05-01T11:01:34.276Z,101658.91
2023-05-01T11:04:05.855Z,101654.59
2023-05-01T11:06:37.878Z,101657.75
2023-05-01T11:09:38.837Z,101667.47
2023-05-01T11:12:10.349Z,101664.16
2023-05-01T11:15:08.495Z,101662.88
2023-05-01T11:17:56.285Z,101674.84
2023-05-01T11:20:50.901Z,101666.47
2023-05-01T11:23:24.030Z,101664.50
2023-05-01T11:26:03.826Z,101665.56
2023-05-01T11:28:33.248Z,101680.84
2023-05-01T11:31:03.447Z,101683.63
2023-05-01T11:33:32.799Z,101669.84
2023-05-01T11:36:05.176Z,101671.09
2023-05-01T11:38:35.172Z,101676.50
2023-05-01T11:41:05.860Z,101675.75
2023-05-01T11:43:34.695Z,101665.00
2023-05-01T11:46:04.578Z,101666.19
2023-05-01T11:48:33.673Z,101673.91
2023-05-01T11:51:04.513Z,101668.03
2023-05-01T11:53:34.449Z,101660.00
2023-05-01T11:56:06.925Z,101665.53
2023-05-01T11:58:41.900Z,101665.31
2023-05-01T12:01:12.782Z,101660.88
2023-05-01T12:03:45.558Z,101671.19
2023-05-01T12:06:15.146Z,101668.34
2023-05-01T12:08:51.111Z,101666.91
2023-05-01T12:11:20.677Z,101667.31
2023-05-01T12:13:50.325Z,101661.72
2023-05-01T12:16:19.006Z,101669.50
2023-05-01T12:18:48.422Z,101670.22
2023-05-01T12:21:18.771Z,101669.03
2023-05-01T12:23:49.578Z,101672.38
2023-05-01T12:26:19.122Z,101674.16
2023-05-01T12:29:07.550Z,101673.81
2023-05-01T12:31:36.729Z,101662.75
2023-05-01T12:34:07.982Z,101675.81
2023-05-01T12:36:38.441Z,101678.28
2023-05-01T12:39:10.185Z,101675.66
2023-05-01T12:41:40.986Z,101678.13
2023-05-01T12:44:20.869Z,101678.03
2023-05-01T12:46:56.849Z,101673.72
2023-05-01T12:49:36.311Z,101669.53
2023-05-01T12:52:07.780Z,101677.84
2023-05-01T12:54:39.989Z,101669.84
2023-05-01T12:57:10.585Z,101671.50
2023-05-01T12:59:40.384Z,101673.13
2023-05-01T13:02:13.653Z,101670.56
2023-05-01T13:04:42.696Z,101662.53
2023-05-01T13:07:16.995Z,101664.09
2023-05-01T13:09:56.046Z,101662.09
2023-05-01T13:12:26.751Z,101666.31
2023-05-01T13:14:55.872Z,101678.72
2023-05-01T13:17:26.624Z,101673.63
2023-05-01T13:19:56.312Z,101670.72
2023-05-01T13:22:37.899Z,101660.25
2023-05-01T13:25:17.462Z,101653.94
2023-05-01T13:27:50.750Z,101664.00
2023-05-01T13:30:23.133Z,101664.47
2023-05-01T13:32:55.919Z,101658.28
2023-05-01T13:35:26.209Z,101666.09
2023-05-01T13:37:56.184Z,101667.06
2023-05-01T13:40:28.885Z,101663.81
2023-05-01T13:42:57.362Z,101670.06
2023-05-01T13:45:27.739Z,101665.00
2023-05-01T13:47:57.463Z,101674.66
2023-05-01T13:50:25.899Z,101672.41
2023-05-01T13:52:54.489Z,101672.66
2023-05-01T13:55:25.843Z,101673.84
2023-05-01T13:57:54.302Z,101676.84
2023-05-01T14:00:23.349Z,101660.16
2023-05-01T14:02:54.081Z,101677.19
2023-05-01T14:05:28.419Z,101677.09
2023-05-01T14:07:58.922Z,101678.41
2023-05-01T14:10:30.535Z,101670.69
2023-05-01T14:13:00.278Z,101671.19
2023-05-01T14:15:29.822Z,101675.22
2023-05-01T14:18:01.037Z,101664.81
2023-05-01T14:20:30.066Z,101665.44
2023-05-01T14:22:59.057Z,101675.31
2023-05-01T14:25:31.666Z,101675.84
2023-05-01T14:28:02.056Z,101663.81
2023-05-01T14:30:33.903Z,101667.09
2023-05-01T14:33:04.276Z,101666.78
2023-05-01T14:35:36.519Z,101661.56
2023-05-01T14:38:12.072Z,101661.63
2023-05-01T14:40:45.996Z,101657.94
2023-05-01T14:43:18.790Z,101663.34
2023-05-01T14:45:49.993Z,101652.69
2023-05-01T14:48:28.799Z,101668.72
2023-05-01T14:50:58.550Z,101660.41
2023-05-01T14:53:28.474Z,101665.72
2023-05-01T14:55:58.416Z,101659.84
2023-05-01T14:58:32.312Z,101665.75
2023-05-01T15:01:03.865Z,101662.75
2023-05-01T15:03:41.033Z,101658.16
2023-05-01T15:06:10.574Z,101669.81
2023-05-01T15:08:39.457Z,101670.53
2023-05-01T15:11:12.040Z,101667.97
2023-05-01T15:13:44.368Z,101666.69
2023-05-01T15:16:17.784Z,101659.75
2023-05-01T15:18:47.551Z,101664.88
2023-05-01T15:21:16.097Z,101670.50
2023-05-01T15:23:45.224Z,101662.91
2023-05-01T15:26:17.545Z,101664.25
2023-05-01T15:28:45.851Z,101668.31
2023-05-01T15:31:14.266Z,101667.28
2023-05-01T15:33:42.922Z,101675.94
2023-05-01T15:36:14.612Z,101672.25
2023-05-01T15:38:43.330Z,101675.31
2023-05-01T15:41:12.568Z,101673.25
2023-05-01T15:43:46.654Z,101676.97
2023-05-01T15:46:20.093Z,101687.59
2023-05-01T15:48:49.101Z,101692.28
2023-05-01T15:51:17.442Z,101697.19
2023-05-01T15:53:46.063Z,101700.75
2023-05-01T15:56:14.176Z,101708.44
2023-05-01T15:58:44.139Z,101707.16
2023-05-01T16:01:13.600Z,101720.59
2023-05-01T16:03:46.897Z,101709.94
2023-05-01T16:06:16.120Z,101716.63
2023-05-01T16:08:44.441Z,101719.06
2023-05-01T16:11:18.417Z,101723.69
2023-05-01T16:13:50.571Z,101722.88
2023-05-01T16:16:23.872Z,101730.56
2023-05-01T16:18:58.902Z,101708.53
2023-05-01T16:21:29.265Z,101721.56
2023-05-01T16:23:57.944Z,101731.72
2023-05-01T16:26:29.757Z,101731.84
2023-05-01T16:29:03.453Z,101734.50
2023-05-01T16:31:43.494Z,101730.16
2023-05-01T16:34:13.672Z,101730.44
2023-05-01T16:36:43.608Z,101728.72
2023-05-01T16:39:14.906Z,101732.13
2023-05-01T16:41:46.305Z,101729.47
2023-05-01T16:44:17.440Z,101733.66
2023-05-01T16:46:53.541Z,101729.66
2023-05-01T16:49:23.904Z,101736.84
2023-05-01T16:51:56.566Z,101737.88
2023-05-01T16:54:27.007Z,101741.56
2023-05-01T16:56:55.301Z,101737.34
2023-05-01T16:59:25.200Z,101735.88
2023-05-01T17:01:53.701Z,101748.88
2023-05-01T17:04:22.326Z,101749.34
2023-05-01T17:06:51.397Z,101745.16
2023-05-01T17:09:20.042Z,101754.31
2023-05-01T17:11:48.394Z,101756.78
2023-05-01T17:14:17.746Z,101746.94
2023-05-01T17:16:49.954Z,101752.84
2023-05-01T17:19:18.491Z,101760.84
2023-05-01T17:21:46.778Z,101765.81
2023-05-01T17:24:14.994Z,101760.28
2023-05-01T17:26:43.502Z,101760.97
2023-05-01T17:29:12.141Z,101753.78
2023-05-01T17:31:40.736Z,101748.22
2023-05-01T17:34:10.470Z,101762.94
2023-05-01T17:36:39.059Z,101760.78
2023-05-01T17:39:08.926Z,101763.91
2023-05-01T17:41:37.226Z,101764.91
2023-05-01T17:44:05.819Z,101773.00
2023-05-01T17:46:35.611Z,101776.25
2023-05-01T17:49:05.805Z,101779.94
2023-05-01T17:51:36.265Z,101775.97
2023-05-01T17:54:04.846Z,101782.41
2023-05-01T17:56:37.778Z,101783.72
2023-05-01T17:59:07.293Z,101785.88
2023-05-01T18:01:36.126Z,101802.72
2023-05-01T18:04:06.101Z,101781.63
2023-05-01T18:06:36.704Z,101798.72
2023-05-01T18:09:05.491Z,101799.94
2023-05-01T18:11:34.794Z,101791.44
2023-05-01T18:14:04.579Z,101805.81
2023-05-01T18:16:33.226Z,101803.88
2023-05-01T18:19:02.640Z,101800.00
2023-05-01T18:21:31.552Z,101803.44
2023-05-01T18:24:02.657Z,101813.25
2023-05-01T18:26:32.987Z,101813.50
2023-05-01T18:29:02.558Z,101821.75
2023-05-01T18:31:31.218Z,101817.81
2023-05-01T18:34:10.244Z,101822.22
2023-05-01T18:36:38.660Z,101828.50
2023-05-01T18:39:43.070Z,101832.88
2023-05-01T18:42:13.096Z,101822.59
2023-05-01T18:44:41.855Z,101830.25
2023-05-01T18:47:16.815Z,101839.66
2023-05-01T18:49:48.080Z,101842.84
2023-05-01T18:52:16.474Z,101848.19
2023-05-01T18:54:47.322Z,101852.31
2023-05-01T18:57:15.757Z,101852.50
2023-05-01T18:59:44.917Z,101855.34
2023-05-01T19:02:13.585Z,101855.28
2023-05-01T19:04:55.890Z,101856.81
2023-05-01T19:07:25.970Z,101858.09
2023-05-01T19:09:56.066Z,101854.81
2023-05-01T19:12:24.663Z,101866.13
2023-05-01T19:14:53.145Z,101868.03
2023-05-01T19:17:22.198Z,101869.03
2023-05-01T19:19:53.422Z,101876.81
2023-05-01T19:22:22.038Z,101886.94
2023-05-01T19:24:50.530Z,101886.38
2023-05-01T19:27:22.485Z,101891.78
2023-05-01T19:29:55.997Z,101899.22
2023-05-01T19:32:24.758Z,101898.56
2023-05-01T19:34:53.113Z,101895.81
2023-05-01T19:37:21.620Z,101900.13
2023-05-01T19:39:50.237Z,101908.06
2023-05-01T19:42:20.372Z,101922.88
2023-05-01T19:44:49.538Z,101916.47
2023-05-01T19:47:18.469Z,101918.91
2023-05-01T19:49:47.763Z,101927.38
2023-05-01T19:52:16.301Z,101939.44
2023-05-01T19:54:45.217Z,101928.88
2023-05-01T19:57:16.428Z,101941.78
2023-05-01T19:59:46.232Z,101940.69
2023-05-01T20:02:15.183Z,101943.94
2023-05-01T20:04:43.768Z,101947.75
2023-05-01T20:07:12.379Z,101948.75
2023-05-01T20:09:40.875Z,101947.41
2023-05-01T20:12:09.214Z,101947.19
2023-05-01T20:14:37.567Z,101953.28
2023-05-01T20:17:07.845Z,101951.69
2023-05-01T20:19:39.437Z,101957.22
2023-05-01T20:22:08.328Z,101954.72
2023-05-01T20:24:36.641Z,101960.16
2023-05-01T20:27:06.123Z,101979.16
2023-05-01T20:29:34.620Z,101961.69
2023-05-01T20:32:03.065Z,101956.75
2023-05-01T20:34:32.676Z,101971.84
2023-05-01T20:37:00.977Z,101971.47
2023-05-01T20:39:29.454Z,101980.63
2023-05-01T20:41:59.197Z,101977.63
2023-05-01T20:44:28.122Z,101974.06
2023-05-01T20:46:56.511Z,101978.94
2023-05-01T20:49:24.981Z,101962.28
2023-05-01T20:51:56.687Z,101969.97
2023-05-01T20:54:25.037Z,101974.47
2023-05-01T20:56:53.516Z,101978.09
2023-05-01T20:59:21.889Z,101971.25
2023-05-01T21:01:50.702Z,101966.75
2023-05-01T21:04:19.217Z,101969.25
2023-05-01T21:06:48.016Z,101973.50
2023-05-01T21:09:18.014Z,101960.22
2023-05-01T21:11:46.167Z,101963.25
2023-05-01T21:14:14.420Z,101963.72
2023-05-01T21:16:43.378Z,101964.69
2023-05-01T21:19:13.376Z,101961.94
2023-05-01T21:21:42.679Z,101958.69
2023-05-01T21:24:15.797Z,101965.94
2023-05-01T21:26:45.584Z,101979.72
2023-05-01T21:29:14.230Z,101981.47
2023-05-01T21:31:42.704Z,101986.84
2023-05-01T21:34:11.058Z,101979.41
2023-05-01T21:36:45.983Z,101980.63
2023-05-01T21:39:14.706Z,102001.91
2023-05-01T21:41:45.843Z,102001.25
2023-05-01T21:44:14.294Z,101987.63
2023-05-01T21:46:43.252Z,101985.84
2023-05-01T21:49:12.867Z,102006.44
2023-05-01T21:51:41.433Z,102004.75
2023-05-01T21:54:09.644Z,102007.56
2023-05-01T21:56:38.048Z,102004.44
2023-05-01T21:59:08.106Z,102000.78
2023-05-01T22:01:39.542Z,102015.13
2023-05-01T22:04:08.553Z,102025.25
2023-05-01T22:06:37.149Z,102020.69
2023-05-01T22:09:05.927Z,102016.13
2023-05-01T22:11:34.820Z,102035.31
2023-05-01T22:14:03.232Z,102033.88
2023-05-01T22:16:32.934Z,102030.31
2023-05-01T22:19:01.616Z,102034.09
2023-05-01T22:21:31.805Z,102030.47
2023-05-01T22:24:00.123Z,102028.00
2023-05-01T22:26:28.454Z,102028.00
2023-05-01T22:28:56.817Z,102025.13
2023-05-01T22:31:25.197Z,102035.53
2023-05-01T22:33:55.398Z,102035.47
2023-05-01T22:36:23.981Z,102044.41
2023-05-01T22:38:52.237Z,102047.91
2023-05-01T22:41:22.742Z,102068.94
2023-05-01T22:43:51.826Z,102076.22
2023-05-01T22:46:20.218Z,102076.91
2023-05-01T22:48:48.634Z,102076.22
2023-05-01T22:51:19.844Z,102070.59
2023-05-01T22:53:48.350Z,102075.94
2023-05-01T22:56:16.754Z,102059.53
2023-05-01T22:58:45.166Z,102078.47
2023-05-01T23:01:13.493Z,102085.72
2023-05-01T23:03:41.791Z,102082.69
2023-05-01T23:06:10.563Z,102094.75
2023-05-01T23:08:40.395Z,102092.53
2023-05-01T23:11:11.183Z,102104.41
2023-05-01T23:13:44.593Z,102105.66
2023-05-01T23:16:16.316Z,102108.88
2023-05-01T23:18:45.774Z,102119.38
2023-05-01T23:21:17.467Z,102111.91
2023-05-01T23:23:48.816Z,102120.53
2023-05-01T23:26:26.395Z,102121.31
2023-05-01T23:28:55.194Z,102113.47
2023-05-01T23:31:26.665Z,102123.81
2023-05-01T23:33:56.055Z,102122.63
2023-05-01T23:36:24.444Z,102130.16
2023-05-01T23:38:54.094Z,102126.59
2023-05-01T23:41:22.764Z,102128.16
2023-05-01T23:43:51.163Z,102126.25
2023-05-01T23:46:19.493Z,102125.13
2023-05-01T23:48:48.056Z,102116.09
2023-05-01T23:51:16.389Z,102122.66
2023-05-01T23:53:44.861Z,102112.03
2023-05-01T23:56:14.613Z,102119.75
2023-05-01T23:58:42.978Z,102115.34
